sensor_id;sensor_type;location;lat;lon;timestamp;temperature;humidity
14057;DHT22;7103;54.300;10.180;2022-11-20T00:03:43;1.70;23.70
14057;DHT22;7103;54.300;10.180;2022-11-20T00:06:12;1.70;23.70
14057;DHT22;7103;54.300;10.180;2022-11-20T00:08:40;1.70;24.40
14057;DHT22;7103;54.300;10.180;2022-11-20T00:11:09;1.80;28.40
14057;DHT22;7103;54.300;10.180;2022-11-20T00:13:45;1.70;33.90
14057;DHT22;7103;54.300;10.180;2022-11-20T00:16:14;1.70;34.60
14057;DHT22;7103;54.300;10.180;2022-11-20T00:18:41;1.60;39.40
14057;DHT22;7103;54.300;10.180;2022-11-20T00:21:20;1.60;40.10
14057;DHT22;7103;54.300;10.180;2022-11-20T00:23:48;1.60;45.50
14057;DHT22;7103;54.300;10.180;2022-11-20T00:26:18;1.60;45.50
14057;DHT22;7103;54.300;10.180;2022-11-20T00:28:50;1.60;50.80
14057;DHT22;7103;54.300;10.180;2022-11-20T00:31:17;1.60;51.80
14057;DHT22;7103;54.300;10.180;2022-11-20T00:33:44;1.70;59.40
14057;DHT22;7103;54.300;10.180;2022-11-20T00:36:19;1.70;62.30
14057;DHT22;7103;54.300;10.180;2022-11-20T00:38:50;1.70;64.30
14057;DHT22;7103;54.300;10.180;2022-11-20T00:41:17;1.70;67.50
14057;DHT22;7103;54.300;10.180;2022-11-20T00:43:44;1.70;71.00
14057;DHT22;7103;54.300;10.180;2022-11-20T00:46:16;1.70;72.50
14057;DHT22;7103;54.300;10.180;2022-11-20T00:48:44;1.60;72.50
14057;DHT22;7103;54.300;10.180;2022-11-20T00:51:13;1.60;72.50
14057;DHT22;7103;54.300;10.180;2022-11-20T00:53:40;1.60;75.30
14057;DHT22;7103;54.300;10.180;2022-11-20T00:56:12;1.70;81.80
14057;DHT22;7103;54.300;10.180;2022-11-20T00:58:42;1.70;82.50
14057;DHT22;7103;54.300;10.180;2022-11-20T01:01:15;1.70;84.00
14057;DHT22;7103;54.300;10.180;2022-11-20T01:03:45;1.70;87.30
14057;DHT22;7103;54.300;10.180;2022-11-20T01:06:16;1.70;89.80
14057;DHT22;7103;54.300;10.180;2022-11-20T01:08:43;1.90;91.00
14057;DHT22;7103;54.300;10.180;2022-11-20T01:11:14;1.70;91.40
14057;DHT22;7103;54.300;10.180;2022-11-20T01:13:42;1.70;93.00
14057;DHT22;7103;54.300;10.180;2022-11-20T01:16:18;1.70;93.50
14057;DHT22;7103;54.300;10.180;2022-11-20T01:18:48;1.70;95.10
14057;DHT22;7103;54.300;10.180;2022-11-20T01:21:18;1.70;96.30
14057;DHT22;7103;54.300;10.180;2022-11-20T01:23:47;1.70;97.40
14057;DHT22;7103;54.300;10.180;2022-11-20T01:26:17;1.90;99.30
14057;DHT22;7103;54.300;10.180;2022-11-20T01:28:44;1.80;99.60
14057;DHT22;7103;54.300;10.180;2022-11-20T01:31:19;1.70;99.90
14057;DHT22;7103;54.300;10.180;2022-11-20T01:33:49;1.70;99.90
14057;DHT22;7103;54.300;10.180;2022-11-20T01:36:18;1.70;99.90
14057;DHT22;7103;54.300;10.180;2022-11-20T01:38:46;1.80;99.90
14057;DHT22;7103;54.300;10.180;2022-11-20T01:41:14;1.80;99.90
14057;DHT22;7103;54.300;10.180;2022-11-20T01:44:03;1.80;99.90
14057;DHT22;7103;54.300;10.180;2022-11-20T01:46:32;1.70;99.90
14057;DHT22;7103;54.300;10.180;2022-11-20T01:49:08;1.80;99.90
14057;DHT22;7103;54.300;10.180;2022-11-20T01:51:48;1.70;99.90
14057;DHT22;7103;54.300;10.180;2022-11-20T01:54:21;1.70;99.90
14057;DHT22;7103;54.300;10.180;2022-11-20T01:56:51;1.70;99.90
14057;DHT22;7103;54.300;10.180;2022-11-20T01:59:21;1.70;99.90
14057;DHT22;7103;54.300;10.180;2022-11-20T02:01:50;1.80;99.90
14057;DHT22;7103;54.300;10.180;2022-11-20T02:04:18;1.70;99.90
14057;DHT22;7103;54.300;10.180;2022-11-20T02:07:02;1.70;99.90
14057;DHT22;7103;54.300;10.180;2022-11-20T02:09:38;1.70;99.90
14057;DHT22;7103;54.300;10.180;2022-11-20T02:12:05;1.70;99.90
14057;DHT22;7103;54.300;10.180;2022-11-20T02:14:52;1.70;99.90
14057;DHT22;7103;54.300;10.180;2022-11-20T02:17:19;1.80;99.90
14057;DHT22;7103;54.300;10.180;2022-11-20T02:19:47;1.80;99.90
14057;DHT22;7103;54.300;10.180;2022-11-20T02:22:25;1.70;99.90
14057;DHT22;7103;54.300;10.180;2022-11-20T02:24:57;1.80;99.90
14057;DHT22;7103;54.300;10.180;2022-11-20T02:27:26;1.80;99.90
14057;DHT22;7103;54.300;10.180;2022-11-20T02:30:00;1.80;99.90
14057;DHT22;7103;54.300;10.180;2022-11-20T02:32:34;1.80;99.90
14057;DHT22;7103;54.300;10.180;2022-11-20T02:38:00;1.90;99.90
14057;DHT22;7103;54.300;10.180;2022-11-20T02:40:27;1.90;99.90
14057;DHT22;7103;54.300;10.180;2022-11-20T02:42:56;1.80;99.90
14057;DHT22;7103;54.300;10.180;2022-11-20T02:45:24;1.80;99.90
14057;DHT22;7103;54.300;10.180;2022-11-20T02:47:51;1.80;99.90
14057;DHT22;7103;54.300;10.180;2022-11-20T02:50:18;1.80;99.90
14057;DHT22;7103;54.300;10.180;2022-11-20T02:52:45;1.70;99.90
14057;DHT22;7103;54.300;10.180;2022-11-20T02:55:12;1.70;99.90
14057;DHT22;7103;54.300;10.180;2022-11-20T02:57:39;1.90;99.90
14057;DHT22;7103;54.300;10.180;2022-11-20T03:00:07;1.90;99.90
14057;DHT22;7103;54.300;10.180;2022-11-20T03:02:34;1.90;99.90
14057;DHT22;7103;54.300;10.180;2022-11-20T03:05:01;1.80;99.90
14057;DHT22;7103;54.300;10.180;2022-11-20T03:07:28;1.80;99.90
14057;DHT22;7103;54.300;10.180;2022-11-20T03:09:55;1.80;99.90
14057;DHT22;7103;54.300;10.180;2022-11-20T03:12:22;1.80;99.90
14057;DHT22;7103;54.300;10.180;2022-11-20T03:14:49;1.70;99.90
14057;DHT22;7103;54.300;10.180;2022-11-20T03:17:19;1.80;99.90
14057;DHT22;7103;54.300;10.180;2022-11-20T03:19:46;1.70;99.90
14057;DHT22;7103;54.300;10.180;2022-11-20T03:22:13;1.70;99.90
14057;DHT22;7103;54.300;10.180;2022-11-20T03:24:40;1.80;99.90
14057;DHT22;7103;54.300;10.180;2022-11-20T03:27:07;1.80;99.90
14057;DHT22;7103;54.300;10.180;2022-11-20T03:29:35;1.80;99.90
14057;DHT22;7103;54.300;10.180;2022-11-20T03:32:02;1.70;99.90
14057;DHT22;7103;54.300;10.180;2022-11-20T03:34:29;1.70;99.90
14057;DHT22;7103;54.300;10.180;2022-11-20T03:36:56;1.70;99.90
14057;DHT22;7103;54.300;10.180;2022-11-20T03:39:23;1.70;99.90
14057;DHT22;7103;54.300;10.180;2022-11-20T03:41:50;1.80;99.90
14057;DHT22;7103;54.300;10.180;2022-11-20T03:44:17;1.70;99.90
14057;DHT22;7103;54.300;10.180;2022-11-20T03:46:44;1.70;99.90
14057;DHT22;7103;54.300;10.180;2022-11-20T03:49:10;1.70;99.90
14057;DHT22;7103;54.300;10.180;2022-11-20T03:51:37;1.70;99.90
14057;DHT22;7103;54.300;10.180;2022-11-20T03:54:06;1.70;99.90
14057;DHT22;7103;54.300;10.180;2022-11-20T03:56:37;1.70;99.90
14057;DHT22;7103;54.300;10.180;2022-11-20T03:59:05;1.70;99.90
14057;DHT22;7103;54.300;10.180;2022-11-20T04:01:34;1.70;99.90
14057;DHT22;7103;54.300;10.180;2022-11-20T04:04:02;1.60;99.90
14057;DHT22;7103;54.300;10.180;2022-11-20T04:06:33;1.60;99.90
14057;DHT22;7103;54.300;10.180;2022-11-20T04:09:00;1.70;99.90
14057;DHT22;7103;54.300;10.180;2022-11-20T04:11:30;1.70;99.90
14057;DHT22;7103;54.300;10.180;2022-11-20T04:13:59;1.60;99.90
14057;DHT22;7103;54.300;10.180;2022-11-20T04:16:30;1.60;99.90
14057;DHT22;7103;54.300;10.180;2022-11-20T04:18:59;1.60;99.90
14057;DHT22;7103;54.300;10.180;2022-11-20T04:21:27;1.60;99.90
14057;DHT22;7103;54.300;10.180;2022-11-20T04:23:54;1.70;99.90
14057;DHT22;7103;54.300;10.180;2022-11-20T04:26:24;1.60;99.90
14057;DHT22;7103;54.300;10.180;2022-11-20T04:28:51;1.60;99.90
14057;DHT22;7103;54.300;10.180;2022-11-20T04:31:21;1.60;99.90
14057;DHT22;7103;54.300;10.180;2022-11-20T04:33:48;1.80;99.90
14057;DHT22;7103;54.300;10.180;2022-11-20T04:36:17;1.60;99.90
14057;DHT22;7103;54.300;10.180;2022-11-20T04:38:45;1.90;99.90
14057;DHT22;7103;54.300;10.180;2022-11-20T04:41:17;1.90;99.90
14057;DHT22;7103;54.300;10.180;2022-11-20T04:43:49;1.70;99.90
14057;DHT22;7103;54.300;10.180;2022-11-20T04:46:17;1.70;99.90
14057;DHT22;7103;54.300;10.180;2022-11-20T04:48:45;1.70;99.90
14057;DHT22;7103;54.300;10.180;2022-11-20T04:51:12;1.70;99.90
14057;DHT22;7103;54.300;10.180;2022-11-20T04:53:39;1.70;99.90
14057;DHT22;7103;54.300;10.180;2022-11-20T04:56:08;1.80;99.90
14057;DHT22;7103;54.300;10.180;2022-11-20T04:58:36;1.70;99.90
14057;DHT22;7103;54.300;10.180;2022-11-20T05:01:23;1.70;99.90
14057;DHT22;7103;54.300;10.180;2022-11-20T05:03:50;1.70;99.90
14057;DHT22;7103;54.300;10.180;2022-11-20T05:06:19;1.90;99.90
14057;DHT22;7103;54.300;10.180;2022-11-20T05:08:46;1.60;99.90
14057;DHT22;7103;54.300;10.180;2022-11-20T05:11:18;1.70;99.90
14057;DHT22;7103;54.300;10.180;2022-11-20T05:13:46;1.60;99.90
14057;DHT22;7103;54.300;10.180;2022-11-20T05:16:21;1.70;99.90
14057;DHT22;7103;54.300;10.180;2022-11-20T05:18:49;1.70;99.90
14057;DHT22;7103;54.300;10.180;2022-11-20T05:21:17;1.90;99.90
14057;DHT22;7103;54.300;10.180;2022-11-20T05:23:45;1.70;99.90
14057;DHT22;7103;54.300;10.180;2022-11-20T05:26:17;1.60;99.90
14057;DHT22;7103;54.300;10.180;2022-11-20T05:28:44;1.60;99.90
14057;DHT22;7103;54.300;10.180;2022-11-20T05:31:16;1.60;99.90
14057;DHT22;7103;54.300;10.180;2022-11-20T05:33:52;1.60;99.90
14057;DHT22;7103;54.300;10.180;2022-11-20T05:36:18;1.60;99.90
14057;DHT22;7103;54.300;10.180;2022-11-20T05:38:45;1.80;99.90
14057;DHT22;7103;54.300;10.180;2022-11-20T05:41:18;1.80;99.90
14057;DHT22;7103;54.300;10.180;2022-11-20T05:43:46;1.60;99.90
14057;DHT22;7103;54.300;10.180;2022-11-20T05:46:15;1.60;99.90
14057;DHT22;7103;54.300;10.180;2022-11-20T05:48:43;1.60;99.90
14057;DHT22;7103;54.300;10.180;2022-11-20T05:51:13;1.60;99.90
14057;DHT22;7103;54.300;10.180;2022-11-20T05:53:41;1.60;99.90
14057;DHT22;7103;54.300;10.180;2022-11-20T05:56:16;1.60;99.90
14057;DHT22;7103;54.300;10.180;2022-11-20T05:58:44;1.60;99.90
14057;DHT22;7103;54.300;10.180;2022-11-20T06:01:13;1.60;99.90
14057;DHT22;7103;54.300;10.180;2022-11-20T06:03:42;1.70;99.90
14057;DHT22;7103;54.300;10.180;2022-11-20T06:06:10;1.70;99.90
14057;DHT22;7103;54.300;10.180;2022-11-20T06:08:37;1.60;99.90
14057;DHT22;7103;54.300;10.180;2022-11-20T06:11:05;1.60;99.90
14057;DHT22;7103;54.300;10.180;2022-11-20T06:13:33;1.60;99.90
14057;DHT22;7103;54.300;10.180;2022-11-20T06:16:07;1.80;99.90
14057;DHT22;7103;54.300;10.180;2022-11-20T06:18:34;1.60;99.90
14057;DHT22;7103;54.300;10.180;2022-11-20T06:21:06;1.60;99.90
14057;DHT22;7103;54.300;10.180;2022-11-20T06:23:34;1.60;99.90
14057;DHT22;7103;54.300;10.180;2022-11-20T06:26:06;1.60;99.90
14057;DHT22;7103;54.300;10.180;2022-11-20T06:28:34;1.70;99.90
14057;DHT22;7103;54.300;10.180;2022-11-20T06:31:01;1.50;99.90
14057;DHT22;7103;54.300;10.180;2022-11-20T06:33:28;1.50;99.90
14057;DHT22;7103;54.300;10.180;2022-11-20T06:35:59;1.50;99.90
14057;DHT22;7103;54.300;10.180;2022-11-20T06:38:34;1.60;99.90
14057;DHT22;7103;54.300;10.180;2022-11-20T06:41:02;1.60;99.90
14057;DHT22;7103;54.300;10.180;2022-11-20T06:43:29;1.80;99.90
14057;DHT22;7103;54.300;10.180;2022-11-20T06:45:58;1.50;99.90
14057;DHT22;7103;54.300;10.180;2022-11-20T06:48:29;1.50;99.90
14057;DHT22;7103;54.300;10.180;2022-11-20T06:50:56;1.50;99.90
14057;DHT22;7103;54.300;10.180;2022-11-20T06:53:24;1.50;99.90
14057;DHT22;7103;54.300;10.180;2022-11-20T06:55:51;1.70;99.90
14057;DHT22;7103;54.300;10.180;2022-11-20T06:58:18;1.60;99.90
14057;DHT22;7103;54.300;10.180;2022-11-20T07:00:45;1.80;99.90
14057;DHT22;7103;54.300;10.180;2022-11-20T07:03:13;1.80;99.90
14057;DHT22;7103;54.300;10.180;2022-11-20T07:05:40;1.60;99.90
14057;DHT22;7103;54.300;10.180;2022-11-20T07:08:07;1.60;99.90
14057;DHT22;7103;54.300;10.180;2022-11-20T07:10:34;1.80;99.90
14057;DHT22;7103;54.300;10.180;2022-11-20T07:13:01;1.60;99.90
14057;DHT22;7103;54.300;10.180;2022-11-20T07:15:28;1.60;99.90
14057;DHT22;7103;54.300;10.180;2022-11-20T07:17:57;1.50;99.90
14057;DHT22;7103;54.300;10.180;2022-11-20T07:20:24;1.60;99.90
14057;DHT22;7103;54.300;10.180;2022-11-20T07:22:55;1.70;99.90
14057;DHT22;7103;54.300;10.180;2022-11-20T07:25:23;1.60;99.90
14057;DHT22;7103;54.300;10.180;2022-11-20T07:27:50;1.60;99.90
14057;DHT22;7103;54.300;10.180;2022-11-20T07:30:18;1.60;99.90
14057;DHT22;7103;54.300;10.180;2022-11-20T07:32:51;1.70;99.90
14057;DHT22;7103;54.300;10.180;2022-11-20T07:35:18;1.70;99.90
14057;DHT22;7103;54.300;10.180;2022-11-20T07:37:46;1.70;99.90
14057;DHT22;7103;54.300;10.180;2022-11-20T07:40:14;1.60;99.90
14057;DHT22;7103;54.300;10.180;2022-11-20T07:42:51;1.70;99.90
14057;DHT22;7103;54.300;10.180;2022-11-20T07:45:19;1.70;99.90
14057;DHT22;7103;54.300;10.180;2022-11-20T07:47:46;1.70;99.90
14057;DHT22;7103;54.300;10.180;2022-11-20T07:50:13;1.80;99.90
14057;DHT22;7103;54.300;10.180;2022-11-20T07:52:40;1.90;99.90
14057;DHT22;7103;54.300;10.180;2022-11-20T07:55:08;2.00;99.90
14057;DHT22;7103;54.300;10.180;2022-11-20T07:57:35;2.10;99.90
14057;DHT22;7103;54.300;10.180;2022-11-20T08:00:03;2.20;99.90
14057;DHT22;7103;54.300;10.180;2022-11-20T08:02:30;2.00;99.90
14057;DHT22;7103;54.300;10.180;2022-11-20T08:04:57;2.00;99.90
14057;DHT22;7103;54.300;10.180;2022-11-20T08:07:27;1.90;99.90
14057;DHT22;7103;54.300;10.180;2022-11-20T08:09:54;1.80;99.90
14057;DHT22;7103;54.300;10.180;2022-11-20T08:12:21;2.10;99.90
14057;DHT22;7103;54.300;10.180;2022-11-20T08:15:07;2.00;99.90
14057;DHT22;7103;54.300;10.180;2022-11-20T08:17:39;2.00;99.90
14057;DHT22;7103;54.300;10.180;2022-11-20T08:20:34;1.90;99.90
14057;DHT22;7103;54.300;10.180;2022-11-20T08:23:04;2.00;99.90
14057;DHT22;7103;54.300;10.180;2022-11-20T08:25:36;2.00;99.90
14057;DHT22;7103;54.300;10.180;2022-11-20T08:28:05;1.90;99.90
14057;DHT22;7103;54.300;10.180;2022-11-20T08:30:46;1.80;99.90
14057;DHT22;7103;54.300;10.180;2022-11-20T08:33:13;2.00;99.90
14057;DHT22;7103;54.300;10.180;2022-11-20T08:35:39;1.70;99.90
14057;DHT22;7103;54.300;10.180;2022-11-20T08:38:08;1.60;99.90
14057;DHT22;7103;54.300;10.180;2022-11-20T08:40:35;1.60;99.90
14057;DHT22;7103;54.300;10.180;2022-11-20T08:43:02;1.70;99.90
14057;DHT22;7103;54.300;10.180;2022-11-20T08:45:29;1.90;99.90
14057;DHT22;7103;54.300;10.180;2022-11-20T08:48:02;2.10;99.90
14057;DHT22;7103;54.300;10.180;2022-11-20T08:50:29;2.20;99.90
14057;DHT22;7103;54.300;10.180;2022-11-20T08:53:05;2.20;99.90
14057;DHT22;7103;54.300;10.180;2022-11-20T08:55:32;2.30;99.90
14057;DHT22;7103;54.300;10.180;2022-11-20T08:58:03;2.30;99.90
14057;DHT22;7103;54.300;10.180;2022-11-20T09:00:31;2.30;99.90
14057;DHT22;7103;54.300;10.180;2022-11-20T09:02:59;2.50;99.90
14057;DHT22;7103;54.300;10.180;2022-11-20T09:05:27;2.70;99.90
14057;DHT22;7103;54.300;10.180;2022-11-20T09:07:58;2.90;99.90
14057;DHT22;7103;54.300;10.180;2022-11-20T09:10:26;3.00;99.90
14057;DHT22;7103;54.300;10.180;2022-11-20T09:12:53;3.00;99.90
14057;DHT22;7103;54.300;10.180;2022-11-20T09:15:22;3.00;98.80
14057;DHT22;7103;54.300;10.180;2022-11-20T09:18:00;3.10;91.50
14057;DHT22;7103;54.300;10.180;2022-11-20T09:20:29;2.90;46.70
14057;DHT22;7103;54.300;10.180;2022-11-20T09:22:57;2.70;19.60
14057;DHT22;7103;54.300;10.180;2022-11-20T09:25:24;2.70;1.00
14057;DHT22;7103;54.300;10.180;2022-11-20T09:27:58;2.70;1.00
14057;DHT22;7103;54.300;10.180;2022-11-20T09:30:25;2.80;1.00
14057;DHT22;7103;54.300;10.180;2022-11-20T09:32:53;3.00;1.00
14057;DHT22;7103;54.300;10.180;2022-11-20T09:35:19;2.80;1.00
14057;DHT22;7103;54.300;10.180;2022-11-20T09:37:46;2.80;1.00
14057;DHT22;7103;54.300;10.180;2022-11-20T09:40:20;2.80;1.00
14057;DHT22;7103;54.300;10.180;2022-11-20T09:51:03;3.20;1.00
14057;DHT22;7103;54.300;10.180;2022-11-20T09:53:56;2.90;1.00
14057;DHT22;7103;54.300;10.180;2022-11-20T09:56:28;2.80;1.00
14057;DHT22;7103;54.300;10.180;2022-11-20T09:58:59;2.90;1.00
14057;DHT22;7103;54.300;10.180;2022-11-20T10:01:36;3.00;1.00
14057;DHT22;7103;54.300;10.180;2022-11-20T10:04:15;3.10;1.00
14057;DHT22;7103;54.300;10.180;2022-11-20T10:09:54;3.40;1.00
14057;DHT22;7103;54.300;10.180;2022-11-20T10:30:06;3.30;99.90
14057;DHT22;7103;54.300;10.180;2022-11-20T10:32:40;3.20;99.90
14057;DHT22;7103;54.300;10.180;2022-11-20T10:37:59;3.30;99.90
14057;DHT22;7103;54.300;10.180;2022-11-20T10:40:38;3.40;99.90
14057;DHT22;7103;54.300;10.180;2022-11-20T10:43:14;3.40;99.90
14057;DHT22;7103;54.300;10.180;2022-11-20T10:46:09;3.40;99.90
14057;DHT22;7103;54.300;10.180;2022-11-20T10:48:38;3.50;99.90
14057;DHT22;7103;54.300;10.180;2022-11-20T10:56:47;3.60;99.90
14057;DHT22;7103;54.300;10.180;2022-11-20T11:01:52;3.60;99.90
14057;DHT22;7103;54.300;10.180;2022-11-20T11:04:36;3.70;99.90
14057;DHT22;7103;54.300;10.180;2022-11-20T11:09:40;3.70;99.90
14057;DHT22;7103;54.300;10.180;2022-11-20T11:12:09;3.70;99.90
14057;DHT22;7103;54.300;10.180;2022-11-20T11:14:49;3.90;99.90
14057;DHT22;7103;54.300;10.180;2022-11-20T11:17:21;3.80;99.90
14057;DHT22;7103;54.300;10.180;2022-11-20T11:22:30;3.80;99.90
14057;DHT22;7103;54.300;10.180;2022-11-20T11:24:58;3.70;99.90
14057;DHT22;7103;54.300;10.180;2022-11-20T11:27:25;3.90;99.90
14057;DHT22;7103;54.300;10.180;2022-11-20T11:30:10;3.80;99.90
14057;DHT22;7103;54.300;10.180;2022-11-20T11:32:38;3.80;99.90
14057;DHT22;7103;54.300;10.180;2022-11-20T11:35:07;3.80;99.90
14057;DHT22;7103;54.300;10.180;2022-11-20T11:37:45;3.90;99.90
14057;DHT22;7103;54.300;10.180;2022-11-20T11:40:15;3.90;99.90
14057;DHT22;7103;54.300;10.180;2022-11-20T11:42:54;3.80;99.90
14057;DHT22;7103;54.300;10.180;2022-11-20T11:45:21;3.80;99.90
14057;DHT22;7103;54.300;10.180;2022-11-20T11:47:49;4.00;99.90
14057;DHT22;7103;54.300;10.180;2022-11-20T11:53:02;4.10;99.90
14057;DHT22;7103;54.300;10.180;2022-11-20T11:55:35;4.00;99.90
14057;DHT22;7103;54.300;10.180;2022-11-20T12:00:41;4.00;99.90
14057;DHT22;7103;54.300;10.180;2022-11-20T12:03:19;4.20;99.90
14057;DHT22;7103;54.300;10.180;2022-11-20T12:05:58;4.10;99.90
14057;DHT22;7103;54.300;10.180;2022-11-20T12:08:59;4.30;99.90
14057;DHT22;7103;54.300;10.180;2022-11-20T12:11:45;4.50;99.90
14057;DHT22;7103;54.300;10.180;2022-11-20T12:14:35;4.40;99.90
14057;DHT22;7103;54.300;10.180;2022-11-20T12:17:03;4.50;99.90
14057;DHT22;7103;54.300;10.180;2022-11-20T12:19:33;4.60;99.90
14057;DHT22;7103;54.300;10.180;2022-11-20T12:25:11;4.30;99.90
14057;DHT22;7103;54.300;10.180;2022-11-20T12:28:00;4.20;99.90
14057;DHT22;7103;54.300;10.180;2022-11-20T12:30:33;4.10;99.90
14057;DHT22;7103;54.300;10.180;2022-11-20T12:33:56;4.10;99.90
14057;DHT22;7103;54.300;10.180;2022-11-20T12:39:40;3.80;99.90
14057;DHT22;7103;54.300;10.180;2022-11-20T12:45:24;3.70;99.90
14057;DHT22;7103;54.300;10.180;2022-11-20T12:48:47;3.70;99.90
14057;DHT22;7103;54.300;10.180;2022-11-20T13:07:06;3.50;99.90
14057;DHT22;7103;54.300;10.180;2022-11-20T13:09:48;3.50;99.90
14057;DHT22;7103;54.300;10.180;2022-11-20T13:12:30;3.20;99.90
14057;DHT22;7103;54.300;10.180;2022-11-20T13:17:59;3.20;99.90
14057;DHT22;7103;54.300;10.180;2022-11-20T13:20:27;3.10;99.90
14057;DHT22;7103;54.300;10.180;2022-11-20T13:22:55;3.10;99.90
14057;DHT22;7103;54.300;10.180;2022-11-20T13:25:34;3.10;99.90
14057;DHT22;7103;54.300;10.180;2022-11-20T13:30:49;3.40;99.90
14057;DHT22;7103;54.300;10.180;2022-11-20T13:33:32;3.50;99.90
14057;DHT22;7103;54.300;10.180;2022-11-20T13:36:21;3.60;99.90
14057;DHT22;7103;54.300;10.180;2022-11-20T13:38:53;3.50;99.90
14057;DHT22;7103;54.300;10.180;2022-11-20T13:46:43;3.20;99.90
14057;DHT22;7103;54.300;10.180;2022-11-20T13:49:38;3.20;99.90
14057;DHT22;7103;54.300;10.180;2022-11-20T14:01:28;3.10;81.90
14057;DHT22;7103;54.300;10.180;2022-11-20T14:03:56;3.00;78.90
14057;DHT22;7103;54.300;10.180;2022-11-20T14:06:38;3.10;78.50
14057;DHT22;7103;54.300;10.180;2022-11-20T14:09:30;2.90;84.10
14057;DHT22;7103;54.300;10.180;2022-11-20T14:11:57;2.80;92.00
14057;DHT22;7103;54.300;10.180;2022-11-20T14:14:29;2.70;99.90
14057;DHT22;7103;54.300;10.180;2022-11-20T14:17:19;2.70;99.30
14057;DHT22;7103;54.300;10.180;2022-11-20T14:19:48;2.90;99.90
14057;DHT22;7103;54.300;10.180;2022-11-20T14:22:22;2.90;99.90
14057;DHT22;7103;54.300;10.180;2022-11-20T14:25:02;2.70;99.90
14057;DHT22;7103;54.300;10.180;2022-11-20T14:27:33;2.70;99.90
14057;DHT22;7103;54.300;10.180;2022-11-20T14:30:01;2.60;97.80
14057;DHT22;7103;54.300;10.180;2022-11-20T14:32:31;2.70;99.90
14057;DHT22;7103;54.300;10.180;2022-11-20T14:35:06;2.60;94.10
14057;DHT22;7103;54.300;10.180;2022-11-20T14:37:37;2.50;93.10
14057;DHT22;7103;54.300;10.180;2022-11-20T14:40:26;2.50;92.00
14057;DHT22;7103;54.300;10.180;2022-11-20T14:42:53;2.30;93.70
14057;DHT22;7103;54.300;10.180;2022-11-20T14:45:21;2.20;98.80
14057;DHT22;7103;54.300;10.180;2022-11-20T14:47:49;2.10;99.90
14057;DHT22;7103;54.300;10.180;2022-11-20T14:50:29;2.10;99.90
14057;DHT22;7103;54.300;10.180;2022-11-20T14:52:59;1.80;99.90
14057;DHT22;7103;54.300;10.180;2022-11-20T14:55:35;1.70;99.90
14057;DHT22;7103;54.300;10.180;2022-11-20T14:58:21;1.80;99.90
14057;DHT22;7103;54.300;10.180;2022-11-20T15:01:12;1.60;99.90
14057;DHT22;7103;54.300;10.180;2022-11-20T15:03:40;1.50;99.90
14057;DHT22;7103;54.300;10.180;2022-11-20T15:06:11;1.30;99.90
14057;DHT22;7103;54.300;10.180;2022-11-20T15:08:38;1.20;99.90
14057;DHT22;7103;54.300;10.180;2022-11-20T15:11:17;1.30;99.90
14057;DHT22;7103;54.300;10.180;2022-11-20T15:13:44;1.10;99.90
14057;DHT22;7103;54.300;10.180;2022-11-20T15:16:20;1.00;99.90
14057;DHT22;7103;54.300;10.180;2022-11-20T15:18:47;1.00;99.90
14057;DHT22;7103;54.300;10.180;2022-11-20T15:21:16;1.00;99.90
14057;DHT22;7103;54.300;10.180;2022-11-20T15:23:44;0.90;99.90
14057;DHT22;7103;54.300;10.180;2022-11-20T15:26:13;0.80;99.90
14057;DHT22;7103;54.300;10.180;2022-11-20T15:28:47;0.70;99.90
14057;DHT22;7103;54.300;10.180;2022-11-20T15:31:19;0.70;99.90
14057;DHT22;7103;54.300;10.180;2022-11-20T15:33:46;0.60;99.90
14057;DHT22;7103;54.300;10.180;2022-11-20T15:36:14;0.60;99.90
14057;DHT22;7103;54.300;10.180;2022-11-20T15:38:41;0.50;99.90
14057;DHT22;7103;54.300;10.180;2022-11-20T15:41:08;0.40;99.90
14057;DHT22;7103;54.300;10.180;2022-11-20T15:43:35;0.40;99.90
14057;DHT22;7103;54.300;10.180;2022-11-20T15:46:10;0.30;99.90
14057;DHT22;7103;54.300;10.180;2022-11-20T15:48:45;0.40;99.90
14057;DHT22;7103;54.300;10.180;2022-11-20T15:51:47;0.30;99.90
14057;DHT22;7103;54.300;10.180;2022-11-20T15:54:17;0.40;99.90
14057;DHT22;7103;54.300;10.180;2022-11-20T15:56:48;0.40;99.90
14057;DHT22;7103;54.300;10.180;2022-11-20T15:59:15;0.30;99.90
14057;DHT22;7103;54.300;10.180;2022-11-20T16:01:42;0.20;99.90
14057;DHT22;7103;54.300;10.180;2022-11-20T16:04:15;0.20;99.90
14057;DHT22;7103;54.300;10.180;2022-11-20T16:06:42;0.10;99.90
14057;DHT22;7103;54.300;10.180;2022-11-20T16:09:09;0.10;99.90
14057;DHT22;7103;54.300;10.180;2022-11-20T16:11:36;0.10;99.90
14057;DHT22;7103;54.300;10.180;2022-11-20T16:14:04;0.20;99.90
14057;DHT22;7103;54.300;10.180;2022-11-20T16:16:51;0.30;99.90
14057;DHT22;7103;54.300;10.180;2022-11-20T16:19:18;0.30;99.90
14057;DHT22;7103;54.300;10.180;2022-11-20T16:21:45;0.40;99.90
14057;DHT22;7103;54.300;10.180;2022-11-20T16:24:14;0.40;99.90
14057;DHT22;7103;54.300;10.180;2022-11-20T16:26:41;0.50;99.90
14057;DHT22;7103;54.300;10.180;2022-11-20T16:29:08;0.50;99.90
14057;DHT22;7103;54.300;10.180;2022-11-20T16:31:36;0.60;99.90
14057;DHT22;7103;54.300;10.180;2022-11-20T16:34:06;0.60;99.90
14057;DHT22;7103;54.300;10.180;2022-11-20T16:36:41;0.60;99.90
14057;DHT22;7103;54.300;10.180;2022-11-20T16:39:10;0.70;99.90
14057;DHT22;7103;54.300;10.180;2022-11-20T16:41:38;0.70;99.90
14057;DHT22;7103;54.300;10.180;2022-11-20T16:44:10;0.70;99.90
14057;DHT22;7103;54.300;10.180;2022-11-20T16:46:37;1.00;99.90
14057;DHT22;7103;54.300;10.180;2022-11-20T16:49:06;0.80;99.90
14057;DHT22;7103;54.300;10.180;2022-11-20T16:51:35;0.80;99.90
14057;DHT22;7103;54.300;10.180;2022-11-20T16:54:03;0.80;99.90
14057;DHT22;7103;54.300;10.180;2022-11-20T16:56:30;0.90;99.90
14057;DHT22;7103;54.300;10.180;2022-11-20T16:58:58;0.90;99.90
14057;DHT22;7103;54.300;10.180;2022-11-20T17:01:27;0.90;1.00
14057;DHT22;7103;54.300;10.180;2022-11-20T17:03:58;0.80;1.00
14057;DHT22;7103;54.300;10.180;2022-11-20T17:06:33;0.90;1.00
14057;DHT22;7103;54.300;10.180;2022-11-20T17:09:00;0.90;1.00
14057;DHT22;7103;54.300;10.180;2022-11-20T17:11:28;0.90;1.00
14057;DHT22;7103;54.300;10.180;2022-11-20T17:13:56;0.90;1.00
14057;DHT22;7103;54.300;10.180;2022-11-20T17:16:26;0.90;1.00
14057;DHT22;7103;54.300;10.180;2022-11-20T17:18:54;0.80;1.00
14057;DHT22;7103;54.300;10.180;2022-11-20T17:21:29;0.80;1.00
14057;DHT22;7103;54.300;10.180;2022-11-20T17:24:00;0.70;1.00
14057;DHT22;7103;54.300;10.180;2022-11-20T17:26:28;0.70;1.00
14057;DHT22;7103;54.300;10.180;2022-11-20T17:29:16;0.60;1.00
14057;DHT22;7103;54.300;10.180;2022-11-20T17:31:45;0.60;1.00
14057;DHT22;7103;54.300;10.180;2022-11-20T17:34:13;0.60;1.00
14057;DHT22;7103;54.300;10.180;2022-11-20T17:36:41;0.50;1.00
14057;DHT22;7103;54.300;10.180;2022-11-20T17:39:13;0.50;1.00
14057;DHT22;7103;54.300;10.180;2022-11-20T17:41:40;0.50;1.00
14057;DHT22;7103;54.300;10.180;2022-11-20T17:44:11;0.50;1.00
14057;DHT22;7103;54.300;10.180;2022-11-20T17:46:38;0.50;1.00
14057;DHT22;7103;54.300;10.180;2022-11-20T17:49:05;0.70;1.00
14057;DHT22;7103;54.300;10.180;2022-11-20T17:51:33;0.40;1.00
14057;DHT22;7103;54.300;10.180;2022-11-20T17:54:02;0.40;1.00